Bookmark and Share
Track history (hours):
 

Delta Pride

Last reported at 2014-Mar-27 11:18 UTC. Time now 2014-Apr-24 21:57 UTC.
Position N 48°49' W 126°05'.
Warning: this ship's position is 28 days out of date.

Length 186 m; draft 11.1 m.

Type: Cargo ship. MMSI: 441339000.

NotesDate/timePositionNaut miles runAvg speedWind from/ knotsBaromVisibWave heightAir tempDewpointWater temp
2014-Mar-27 11:18N 48°49' W 126°05'911.5
2014-Mar-27 10:33N 48°45' W 125°53'1211.7
2014-Mar-27 09:33N 48°40' W 125°37'1212.1
2014-Mar-27 08:33N 48°35' W 125°21'5011.3
2014-Mar-27 04:09N 48°21' W 124°09'812.7
2014-Mar-27 03:33N 48°18' W 123°58'1414.1
2014-Mar-27 02:33N 48°16' W 123°37'1211.5
2014-Mar-27 01:33N 48°23' W 123°24'1010.1
2014-Mar-27 00:33N 48°30' W 123°12'1313.3
2014-Mar-26 23:33N 48°43' W 123°12'18 6.0
2014-Mar-26 20:33N 49°01' W 123°09'0 0.0
2014-Mar-26 19:33N 49°01' W 123°09'0 0.0
2014-Mar-26 17:33N 49°01' W 123°09'0 0.0
2014-Mar-26 16:33N 49°01' W 123°09'0 0.0
2014-Mar-26 15:33N 49°01' W 123°09'0 0.0
2014-Mar-26 14:33N 49°01' W 123°09'0 0.0
2014-Mar-26 13:33N 49°01' W 123°09'0 0.0
2014-Mar-26 12:33N 49°01' W 123°09'0 0.0
2014-Mar-26 11:33N 49°01' W 123°09'0 0.0
2014-Mar-26 10:33N 49°01' W 123°09'0 0.0
2014-Mar-26 09:33N 49°01' W 123°09'0 0.0
2014-Mar-26 08:33N 49°01' W 123°09'0 0.0
2014-Mar-26 07:33N 49°01' W 123°09'0 0.0
2014-Mar-26 00:33N 49°01' W 123°09'5 5.0
2014-Mar-25 23:33N 48°60' W 123°17'8 8.4
2014-Mar-25 22:33N 49°07' W 123°24'1211.5
2014-Mar-25 21:33N 49°18' W 123°18'3 2.6
2014-Mar-25 20:31N 49°18' W 123°14'0 0.0
2014-Mar-25 19:31N 49°18' W 123°14'0 0.0
2014-Mar-25 17:31N 49°18' W 123°14'0 0.0
2014-Mar-25 16:31N 49°18' W 123°14'0 0.0
2014-Mar-25 15:31N 49°18' W 123°14'0 0.0
2014-Mar-25 14:31N 49°18' W 123°14'0 0.0
2014-Mar-25 13:31N 49°18' W 123°14'0 0.0
2014-Mar-25 12:31N 49°18' W 123°14'0 0.0
2014-Mar-25 11:31N 49°18' W 123°14'0 0.0
2014-Mar-25 10:31N 49°18' W 123°14'0 0.0
2014-Mar-25 09:31N 49°18' W 123°14'0 0.0
2014-Mar-25 08:31N 49°18' W 123°14'0 0.1
2014-Mar-25 07:31N 49°18' W 123°13'0 0.1
2014-Mar-25 06:31N 49°18' W 123°13'0 0.0
2014-Mar-25 05:28N 49°18' W 123°13'0 0.0
2014-Mar-25 04:31N 49°18' W 123°13'0 0.0
2014-Mar-25 03:31N 49°18' W 123°13'0 0.0
2014-Mar-25 02:28N 49°18' W 123°13'0 0.0
2014-Mar-25 01:31N 49°18' W 123°13'0 0.0
2014-Mar-24 16:58N 49°18' W 123°14'0 0.0
2014-Mar-22 20:31N 49°18' W 123°14'0 0.0
2014-Mar-22 20:25N 49°18' W 123°14'0 0.0
2014-Mar-22 17:31N 49°18' W 123°14'0 0.1
2014-Mar-22 14:32N 49°18' W 123°14'0 0.0
2014-Mar-22 13:32N 49°18' W 123°14'0 0.0
2014-Mar-22 12:32N 49°18' W 123°14'0 0.1
2014-Mar-22 11:31N 49°18' W 123°14'0 0.0
2014-Mar-22 10:28N 49°18' W 123°14'0 0.1
2014-Mar-22 09:31N 49°18' W 123°14'0 0.1
2014-Mar-22 08:28N 49°18' W 123°14'0 0.0
2014-Mar-22 07:31N 49°18' W 123°14'0 0.0
2014-Mar-22 06:31N 49°18' W 123°14'0 0.1
2014-Mar-22 05:32N 49°18' W 123°13'0 0.0
2014-Mar-22 04:31N 49°18' W 123°13'0 0.0
2014-Mar-22 03:31N 49°18' W 123°13'0 0.0
2014-Mar-22 02:32N 49°18' W 123°13'0 0.1
2014-Mar-22 01:33N 49°18' W 123°13'5 4.9
2014-Mar-22 00:33N 49°18' W 123°06'0 0.2
2014-Mar-21 23:31N 49°18' W 123°06'0 0.0
2014-Mar-21 22:31N 49°18' W 123°06'0 0.0
2014-Mar-21 21:31N 49°18' W 123°06'0 0.0
2014-Mar-21 20:31N 49°18' W 123°06'0 0.0
2014-Mar-21 19:31N 49°18' W 123°06'0 0.0
2014-Mar-21 18:31N 49°18' W 123°06'0 0.1
2014-Mar-21 17:31N 49°18' W 123°06'0 0.0
2014-Mar-21 16:31N 49°18' W 123°06'0 0.0
2014-Mar-21 15:31N 49°18' W 123°06'0 0.1
2014-Mar-21 14:31N 49°18' W 123°06'0 0.0
2014-Mar-21 13:31N 49°18' W 123°06'0 0.0
2014-Mar-21 12:31N 49°18' W 123°06'0 0.0
2014-Mar-21 11:31N 49°18' W 123°06'0 0.0
2014-Mar-21 10:31N 49°18' W 123°06'0 0.0
2014-Mar-21 09:31N 49°18' W 123°06'0 0.1
2014-Mar-21 08:31N 49°18' W 123°06'0 0.1
2014-Mar-21 07:31N 49°18' W 123°06'0 0.1
2014-Mar-21 06:31N 49°18' W 123°06'0 0.1
2014-Mar-21 05:31N 49°18' W 123°06'0 0.0
2014-Mar-21 04:31N 49°18' W 123°06'0 0.0
2014-Mar-21 03:31N 49°18' W 123°06'0 0.1
2014-Mar-21 02:31N 49°18' W 123°06'0 0.2
2014-Mar-21 01:31N 49°18' W 123°06'0 0.2
2014-Mar-21 00:31N 49°18' W 123°06'0 0.0
2014-Mar-20 23:31N 49°18' W 123°06'0 0.1
2014-Mar-20 22:31N 49°18' W 123°06'0 0.0
2014-Mar-20 21:31N 49°18' W 123°06'0 0.0
2014-Mar-20 20:31N 49°18' W 123°06'0 0.0
2014-Mar-20 19:31N 49°18' W 123°06'0 0.2
2014-Mar-20 18:31N 49°18' W 123°06'0 0.0
2014-Mar-20 17:31N 49°18' W 123°06'0 0.1
2014-Mar-20 16:31N 49°18' W 123°06'0 0.1
2014-Mar-20 15:31N 49°18' W 123°06'0 0.1
2014-Mar-20 13:31N 49°18' W 123°06'0 0.2
2014-Mar-20 12:31N 49°18' W 123°06'0 0.2
2014-Mar-20 11:31N 49°18' W 123°06'0 0.1
2014-Mar-20 10:31N 49°18' W 123°06'0 0.1
2014-Mar-20 09:31N 49°18' W 123°06'0 0.1
2014-Mar-20 08:31N 49°18' W 123°06'0 0.1
2014-Mar-20 07:31N 49°18' W 123°06'0 0.2
2014-Mar-20 06:31N 49°18' W 123°06'0 0.0
2014-Mar-20 05:31N 49°18' W 123°06'0 0.0
2014-Mar-20 04:31N 49°18' W 123°06'0 0.0
2014-Mar-20 03:31N 49°18' W 123°06'0 0.0
2014-Mar-20 02:31N 49°18' W 123°06'0 0.1
2014-Mar-20 01:31N 49°18' W 123°06'0 0.0
2014-Mar-20 00:31N 49°18' W 123°06'0 0.1
2014-Mar-19 23:31N 49°18' W 123°06'0 0.0
2014-Mar-19 22:31N 49°18' W 123°06'0 0.1
2014-Mar-19 21:31N 49°18' W 123°06'0 0.1
2014-Mar-19 20:31N 49°18' W 123°06'0 0.0
2014-Mar-19 19:31N 49°18' W 123°06'0 0.0
2014-Mar-19 18:31N 49°18' W 123°06'0 0.0
2014-Mar-19 17:31N 49°18' W 123°06'0 0.1
2014-Mar-19 16:31N 49°18' W 123°06'0 0.0
2014-Mar-19 15:31N 49°18' W 123°06'0 0.0
2014-Mar-19 14:31N 49°18' W 123°06'0 0.0
2014-Mar-19 13:31N 49°18' W 123°06'0 0.0
2014-Mar-19 12:31N 49°18' W 123°06'0 0.1
2014-Mar-19 11:31N 49°18' W 123°06'0 0.0
2014-Mar-19 10:31N 49°18' W 123°06'0 0.0
2014-Mar-19 09:31N 49°18' W 123°06'0 0.0
2014-Mar-19 08:31N 49°18' W 123°06'0 0.0
2014-Mar-19 07:31N 49°18' W 123°06'0 0.0
2014-Mar-19 06:31N 49°18' W 123°06'0 0.0
2014-Mar-19 05:31N 49°18' W 123°06'0 0.0
2014-Mar-19 04:31N 49°18' W 123°06'0 0.1
2014-Mar-19 03:28N 49°18' W 123°06'0 0.0
2014-Mar-19 02:31N 49°18' W 123°06'0 0.0
2014-Mar-19 01:31N 49°18' W 123°06'0 0.0
2014-Mar-19 00:31N 49°18' W 123°06'0 0.0
2014-Mar-18 23:31N 49°18' W 123°06'0 0.0
2014-Mar-18 22:31N 49°18' W 123°06'0 0.0
2014-Mar-18 21:31N 49°18' W 123°06'0 0.0
2014-Mar-18 20:31N 49°18' W 123°06'0 0.0
2014-Mar-18 19:31N 49°18' W 123°06'0 0.0
2014-Mar-18 18:31N 49°18' W 123°06'0 0.0
2014-Mar-18 17:31N 49°18' W 123°06'0 0.0
2014-Mar-18 16:31N 49°18' W 123°06'0 0.0
2014-Mar-18 15:31N 49°18' W 123°06'0 0.0
2014-Mar-18 14:31N 49°18' W 123°06'0 0.0
2014-Mar-18 13:31N 49°18' W 123°06'0 0.0
2014-Mar-18 12:31N 49°18' W 123°06'0 0.0
2014-Mar-18 11:31N 49°18' W 123°06'0 0.0
2014-Mar-18 10:31N 49°18' W 123°06'0 0.0
2014-Mar-18 09:31N 49°18' W 123°06'0 0.0
2014-Mar-18 08:31N 49°18' W 123°06'0 0.0
2014-Mar-18 07:31N 49°18' W 123°06'0 0.0
2014-Mar-18 06:31N 49°18' W 123°06'1 0.7
2014-Mar-18 05:34N 49°18' W 123°07'8 7.9
2014-Mar-18 04:34N 49°15' W 123°18'1312.6
2014-Mar-18 03:33N 49°03' W 123°18'1313.3
2014-Mar-18 02:33N 48°53' W 123°04'1110.7
2014-Mar-18 01:33N 48°43' W 123°10'1312.6
2014-Mar-18 00:34N 48°31' W 123°11'1111.4
2014-Mar-17 23:33N 48°21' W 123°21'1110.7
2014-Mar-17 22:33N 48°13' W 123°32'1414.1
2014-Mar-17 21:33N 48°14' W 123°53'  

Dump ship's entire track history

sailing weather and tide predictions

Delta Pride — DSNG6 — position and weather